Lindsay, MT

6:32 PM MDT on June 29, 2015 (GMT -0600)
SE Bloomfield | | Change Station
CLOSE
Current Station
Personal Weather Station
Location: Bloomfield, MT
Elevation: 2753 ft
Nearby Weather Stations

Elev 2753 ft 47.36 °N, 104.79 °W | Updated 2 seconds ago

Clear
Clear
90.8 °F
Feels Like 88 °F
N
10.0
Wind Variable Wind from North
Gusts 15.0 mph

Today
High -- | Low -- °F
--% Chance of Precip.
Yesterday
High -- | Low -- °F
Precip. -- in
5:07 AM 9:00 PM
Waxing Gibbous, 95% visible
Pressure 29.94 in
Visibility 10.0 miles
Clouds Clear
Heat Index 88 °F
Dew Point 53 °F
Humidity 28%
Rainfall 0.00 in
Snow Depth Not available.
UV 2 out of 12
Pollen 6.20 out of 12
Air Quality Not available.
Flu Activity Sporadic
METAR KGDV 300015Z AUTO 01011KT 10SM CLR 34/09 A2994 RMK AO1

More Conditions Fewer Conditions

Pressure 29.94 in
Visibility 10.0 miles
Clouds Clear
Heat Index 88 °F
Dew Point 53 °F
Humidity 28%
Rainfall 0.00 in
Snow Depth Not available.
UV 2 out of 12
Pollen 6.20 out of 12
Air Quality Not available.
Flu Activity Sporadic
METAR KGDV 300015Z AUTO 01011KT 10SM CLR 34/09 A2994 RMK AO1

More Conditions Fewer Conditions

10-Day Weather Forecast

×

Almanac

Astronomy

Jun. 29, 2015 Rise Set
Actual Time
Civil Twilight
Nautical Twilight
Astronomical Twilight
Moon
Length of Visible Light
Length of Day
Tomorrow will be .
, % of the Moon is Illuminated

Today's Extremes

State Highs State Lows

Community

WunderPhotos

Upload Photos

1,833,903 photos uploaded!

WunderBlogs® & News

Nearby

Air Quality

  Air Quality AQ Index Pollutant
Not available.

Snow Depth

Station Depth Elevation

Earthquake Activity

City Distance Mag. Time & Date
Minimum magnitude displayed is 2.5.

Coastal Water Temperatures

Place Temperature

Stations

Nearby Weather Stations

Station Location Temp. Windchill Dew Point Humidity Wind Precip. Elev Updated Type